sensor_id;sensor_type;location;lat;lon;timestamp;P1;P2;P0
35654;PMS1003;21773;50.010;19.972;2024-03-02T00:03:01;59.40;45.00;33.00
35654;PMS1003;21773;50.010;19.972;2024-03-02T00:06:05;58.00;44.40;33.00
35654;PMS1003;21773;50.010;19.972;2024-03-02T00:09:09;57.60;45.00;33.00
35654;PMS1003;21773;50.010;19.972;2024-03-02T00:12:15;55.40;45.00;33.40
35654;PMS1003;21773;50.010;19.972;2024-03-02T00:15:26;56.00;44.20;32.80
35654;PMS1003;21773;50.010;19.972;2024-03-02T00:18:43;57.00;44.00;32.40
35654;PMS1003;21773;50.010;19.972;2024-03-02T00:21:47;55.80;44.20;32.20
35654;PMS1003;21773;50.010;19.972;2024-03-02T00:24:50;56.25;45.00;33.00
35654;PMS1003;21773;50.010;19.972;2024-03-02T00:27:53;56.40;44.00;31.00
35654;PMS1003;21773;50.010;19.972;2024-03-02T00:30:58;57.40;45.00;33.00
35654;PMS1003;21773;50.010;19.972;2024-03-02T00:34:03;55.80;43.60;31.80
35654;PMS1003;21773;50.010;19.972;2024-03-02T00:37:08;56.60;45.00;34.00
35654;PMS1003;21773;50.010;19.972;2024-03-02T00:40:13;57.00;45.75;33.50
35654;PMS1003;21773;50.010;19.972;2024-03-02T00:46:49;57.50;45.00;33.00
35654;PMS1003;21773;50.010;19.972;2024-03-02T00:49:53;57.00;46.00;33.60
35654;PMS1003;21773;50.010;19.972;2024-03-02T00:52:56;55.40;43.00;32.00
35654;PMS1003;21773;50.010;19.972;2024-03-02T00:56:00;58.00;46.00;34.00
35654;PMS1003;21773;50.010;19.972;2024-03-02T00:59:04;56.25;44.00;32.00
35654;PMS1003;21773;50.010;19.972;2024-03-02T01:02:08;58.25;45.00;33.00
35654;PMS1003;21773;50.010;19.972;2024-03-02T01:05:12;56.00;44.60;33.00
35654;PMS1003;21773;50.010;19.972;2024-03-02T01:08:15;57.00;44.60;33.00
35654;PMS1003;21773;50.010;19.972;2024-03-02T01:11:19;61.25;47.00;34.00
35654;PMS1003;21773;50.010;19.972;2024-03-02T01:14:24;57.00;44.40;33.00
35654;PMS1003;21773;50.010;19.972;2024-03-02T01:17:27;59.40;46.00;34.00
35654;PMS1003;21773;50.010;19.972;2024-03-02T01:20:32;56.80;44.00;32.60
35654;PMS1003;21773;50.010;19.972;2024-03-02T01:23:35;55.75;44.00;31.00
35654;PMS1003;21773;50.010;19.972;2024-03-02T01:26:39;58.00;45.00;33.00
35654;PMS1003;21773;50.010;19.972;2024-03-02T01:29:42;58.00;44.00;33.00
35654;PMS1003;21773;50.010;19.972;2024-03-02T01:32:45;57.20;44.60;33.00
35654;PMS1003;21773;50.010;19.972;2024-03-02T01:35:50;59.40;46.00;33.00
35654;PMS1003;21773;50.010;19.972;2024-03-02T01:38:53;59.25;46.00;34.00
35654;PMS1003;21773;50.010;19.972;2024-03-02T01:41:56;58.00;45.60;33.00
35654;PMS1003;21773;50.010;19.972;2024-03-02T01:44:59;58.00;44.40;33.00
35654;PMS1003;21773;50.010;19.972;2024-03-02T01:48:03;57.00;44.00;33.00
35654;PMS1003;21773;50.010;19.972;2024-03-02T01:51:08;52.80;41.80;30.80
35654;PMS1003;21773;50.010;19.972;2024-03-02T01:54:12;57.00;43.00;31.00
35654;PMS1003;21773;50.010;19.972;2024-03-02T01:57:15;56.00;44.00;32.40
35654;PMS1003;21773;50.010;19.972;2024-03-02T02:00:18;52.00;42.00;31.00
35654;PMS1003;21773;50.010;19.972;2024-03-02T02:03:22;57.25;44.00;32.00
35654;PMS1003;21773;50.010;19.972;2024-03-02T02:06:27;55.20;43.00;31.60
35654;PMS1003;21773;50.010;19.972;2024-03-02T02:09:30;53.00;42.20;31.00
35654;PMS1003;21773;50.010;19.972;2024-03-02T02:12:34;57.80;44.80;32.80
35654;PMS1003;21773;50.010;19.972;2024-03-02T02:15:38;52.60;43.00;31.00
35654;PMS1003;21773;50.010;19.972;2024-03-02T02:18:42;55.80;44.40;32.80
35654;PMS1003;21773;50.010;19.972;2024-03-02T02:21:46;52.80;43.00;31.00
35654;PMS1003;21773;50.010;19.972;2024-03-02T02:24:50;53.00;43.00;31.00
35654;PMS1003;21773;50.010;19.972;2024-03-02T02:27:53;57.00;43.00;31.40
35654;PMS1003;21773;50.010;19.972;2024-03-02T02:30:57;51.20;41.40;31.00
35654;PMS1003;21773;50.010;19.972;2024-03-02T02:34:02;50.20;40.00;29.60
35654;PMS1003;21773;50.010;19.972;2024-03-02T02:37:07;54.25;42.00;31.00
35654;PMS1003;21773;50.010;19.972;2024-03-02T02:40:10;57.40;44.60;33.00
35654;PMS1003;21773;50.010;19.972;2024-03-02T02:43:14;55.00;43.00;31.00
35654;PMS1003;21773;50.010;19.972;2024-03-02T02:46:17;52.60;42.00;31.00
35654;PMS1003;21773;50.010;19.972;2024-03-02T02:49:20;50.00;40.00;30.00
35654;PMS1003;21773;50.010;19.972;2024-03-02T02:52:25;49.60;41.00;30.00
35654;PMS1003;21773;50.010;19.972;2024-03-02T02:55:28;52.00;39.00;29.00
35654;PMS1003;21773;50.010;19.972;2024-03-02T02:58:31;49.20;40.00;29.60
35654;PMS1003;21773;50.010;19.972;2024-03-02T03:01:34;50.80;41.00;30.00
35654;PMS1003;21773;50.010;19.972;2024-03-02T03:04:39;49.00;41.00;30.00
35654;PMS1003;21773;50.010;19.972;2024-03-02T03:07:44;53.00;41.00;30.00
35654;PMS1003;21773;50.010;19.972;2024-03-02T03:10:47;47.60;37.20;28.20
35654;PMS1003;21773;50.010;19.972;2024-03-02T03:13:51;50.00;40.50;29.75
35654;PMS1003;21773;50.010;19.972;2024-03-02T03:16:55;51.50;40.00;30.00
35654;PMS1003;21773;50.010;19.972;2024-03-02T03:19:58;52.00;41.00;31.00
35654;PMS1003;21773;50.010;19.972;2024-03-02T03:23:04;48.75;39.75;30.00
35654;PMS1003;21773;50.010;19.972;2024-03-02T03:26:07;50.00;39.50;29.00
35654;PMS1003;21773;50.010;19.972;2024-03-02T03:29:10;51.40;39.40;28.60
35654;PMS1003;21773;50.010;19.972;2024-03-02T03:32:13;51.50;40.00;29.75
35654;PMS1003;21773;50.010;19.972;2024-03-02T03:35:16;50.50;39.75;29.00
35654;PMS1003;21773;50.010;19.972;2024-03-02T03:38:21;52.25;42.00;30.00
35654;PMS1003;21773;50.010;19.972;2024-03-02T03:41:24;47.60;38.00;28.00
35654;PMS1003;21773;50.010;19.972;2024-03-02T03:44:27;50.00;40.00;29.00
35654;PMS1003;21773;50.010;19.972;2024-03-02T03:47:31;48.60;39.20;29.80
35654;PMS1003;21773;50.010;19.972;2024-03-02T03:50:34;47.40;39.40;28.60
35654;PMS1003;21773;50.010;19.972;2024-03-02T03:53:39;48.50;38.50;28.00
35654;PMS1003;21773;50.010;19.972;2024-03-02T03:56:42;49.25;40.00;30.00
35654;PMS1003;21773;50.010;19.972;2024-03-02T03:59:45;45.00;38.00;28.00
35654;PMS1003;21773;50.010;19.972;2024-03-02T04:02:48;50.00;40.00;29.00
35654;PMS1003;21773;50.010;19.972;2024-03-02T04:05:51;45.60;38.40;28.40
35654;PMS1003;21773;50.010;19.972;2024-03-02T04:08:56;47.00;37.60;28.00
35654;PMS1003;21773;50.010;19.972;2024-03-02T04:11:59;46.00;35.50;27.00
35654;PMS1003;21773;50.010;19.972;2024-03-02T04:15:03;47.60;39.40;29.00
35654;PMS1003;21773;50.010;19.972;2024-03-02T04:18:07;47.50;38.50;28.50
35654;PMS1003;21773;50.010;19.972;2024-03-02T04:21:11;45.00;36.00;27.00
35654;PMS1003;21773;50.010;19.972;2024-03-02T04:24:15;52.00;41.60;30.60
35654;PMS1003;21773;50.010;19.972;2024-03-02T04:27:18;51.40;41.20;31.00
35654;PMS1003;21773;50.010;19.972;2024-03-02T04:30:22;45.50;38.00;28.00
35654;PMS1003;21773;50.010;19.972;2024-03-02T04:33:25;47.00;38.00;28.00
35654;PMS1003;21773;50.010;19.972;2024-03-02T04:36:28;49.00;39.00;29.80
35654;PMS1003;21773;50.010;19.972;2024-03-02T04:39:33;45.00;36.60;28.00
35654;PMS1003;21773;50.010;19.972;2024-03-02T04:42:37;49.00;38.00;28.00
35654;PMS1003;21773;50.010;19.972;2024-03-02T04:45:40;48.50;38.00;28.00
35654;PMS1003;21773;50.010;19.972;2024-03-02T04:48:44;49.60;38.00;28.00
35654;PMS1003;21773;50.010;19.972;2024-03-02T04:51:47;50.00;40.00;30.00
35654;PMS1003;21773;50.010;19.972;2024-03-02T04:54:51;46.20;39.00;29.00
35654;PMS1003;21773;50.010;19.972;2024-03-02T04:58:25;49.60;39.40;29.60
35654;PMS1003;21773;50.010;19.972;2024-03-02T05:01:28;51.60;40.80;30.00
35654;PMS1003;21773;50.010;19.972;2024-03-02T05:04:31;46.75;36.75;28.00
35654;PMS1003;21773;50.010;19.972;2024-03-02T05:07:34;48.40;37.20;27.00
35654;PMS1003;21773;50.010;19.972;2024-03-02T05:10:39;48.00;37.20;28.00
35654;PMS1003;21773;50.010;19.972;2024-03-02T05:13:42;45.00;38.00;28.00
35654;PMS1003;21773;50.010;19.972;2024-03-02T05:16:45;50.20;40.20;28.00
35654;PMS1003;21773;50.010;19.972;2024-03-02T05:19:48;49.00;38.75;28.00
35654;PMS1003;21773;50.010;19.972;2024-03-02T05:22:51;47.00;38.40;28.40
35654;PMS1003;21773;50.010;19.972;2024-03-02T05:25:56;47.60;39.00;29.00
35654;PMS1003;21773;50.010;19.972;2024-03-02T05:28:59;51.00;39.20;28.20
35654;PMS1003;21773;50.010;19.972;2024-03-02T05:32:02;46.20;37.00;28.00
35654;PMS1003;21773;50.010;19.972;2024-03-02T05:35:05;48.00;38.00;28.00
35654;PMS1003;21773;50.010;19.972;2024-03-02T05:38:09;46.80;38.80;28.00
35654;PMS1003;21773;50.010;19.972;2024-03-02T05:41:14;49.25;39.50;29.00
35654;PMS1003;21773;50.010;19.972;2024-03-02T05:44:17;44.20;35.00;26.00
35654;PMS1003;21773;50.010;19.972;2024-03-02T05:47:21;48.80;38.20;28.00
35654;PMS1003;21773;50.010;19.972;2024-03-02T05:50:24;47.00;38.00;27.25
35654;PMS1003;21773;50.010;19.972;2024-03-02T05:53:27;46.50;36.75;27.50
35654;PMS1003;21773;50.010;19.972;2024-03-02T05:56:31;46.40;37.80;28.00
35654;PMS1003;21773;50.010;19.972;2024-03-02T05:59:34;45.75;36.75;27.00
35654;PMS1003;21773;50.010;19.972;2024-03-02T06:02:38;45.60;38.00;28.00
35654;PMS1003;21773;50.010;19.972;2024-03-02T06:05:42;45.00;35.75;27.50
35654;PMS1003;21773;50.010;19.972;2024-03-02T06:08:45;45.80;38.40;28.40
35654;PMS1003;21773;50.010;19.972;2024-03-02T06:11:49;46.50;38.00;28.00
35654;PMS1003;21773;50.010;19.972;2024-03-02T06:14:52;45.50;38.00;28.00
35654;PMS1003;21773;50.010;19.972;2024-03-02T06:17:57;46.25;37.50;28.00
35654;PMS1003;21773;50.010;19.972;2024-03-02T06:21:01;47.40;38.40;28.00
35654;PMS1003;21773;50.010;19.972;2024-03-02T06:24:04;46.20;36.00;28.00
35654;PMS1003;21773;50.010;19.972;2024-03-02T06:27:09;45.40;36.00;28.00
35654;PMS1003;21773;50.010;19.972;2024-03-02T06:30:13;45.20;36.00;27.80
35654;PMS1003;21773;50.010;19.972;2024-03-02T06:33:16;44.00;35.25;27.00
35654;PMS1003;21773;50.010;19.972;2024-03-02T06:36:19;49.00;39.00;29.00
35654;PMS1003;21773;50.010;19.972;2024-03-02T06:39:22;46.00;38.40;29.00
35654;PMS1003;21773;50.010;19.972;2024-03-02T06:42:27;50.40;39.00;29.00
35654;PMS1003;21773;50.010;19.972;2024-03-02T06:45:35;51.60;40.80;30.20
35654;PMS1003;21773;50.010;19.972;2024-03-02T06:48:38;49.60;40.00;30.80
35654;PMS1003;21773;50.010;19.972;2024-03-02T06:51:41;52.00;42.20;31.40
35654;PMS1003;21773;50.010;19.972;2024-03-02T06:54:44;49.60;41.00;31.00
35654;PMS1003;21773;50.010;19.972;2024-03-02T06:57:49;51.25;40.50;30.25
35654;PMS1003;21773;50.010;19.972;2024-03-02T07:00:53;50.33;40.33;30.33
35654;PMS1003;21773;50.010;19.972;2024-03-02T07:03:56;49.75;41.00;30.25
35654;PMS1003;21773;50.010;19.972;2024-03-02T07:06:59;49.00;39.00;29.20
35654;PMS1003;21773;50.010;19.972;2024-03-02T07:10:03;47.60;39.00;28.00
35654;PMS1003;21773;50.010;19.972;2024-03-02T07:13:10;49.40;40.00;30.00
35654;PMS1003;21773;50.010;19.972;2024-03-02T07:16:14;48.20;39.60;29.00
35654;PMS1003;21773;50.010;19.972;2024-03-02T07:19:31;47.00;37.75;28.75
35654;PMS1003;21773;50.010;19.972;2024-03-02T07:22:34;50.80;42.00;31.00
35654;PMS1003;21773;50.010;19.972;2024-03-02T07:25:42;49.00;39.40;29.00
35654;PMS1003;21773;50.010;19.972;2024-03-02T07:28:49;46.40;35.40;26.00
35654;PMS1003;21773;50.010;19.972;2024-03-02T07:31:53;49.60;39.60;30.00
35654;PMS1003;21773;50.010;19.972;2024-03-02T07:34:56;53.40;41.00;30.00
35654;PMS1003;21773;50.010;19.972;2024-03-02T07:38:00;48.00;39.40;30.00
35654;PMS1003;21773;50.010;19.972;2024-03-02T07:41:03;49.00;39.00;30.00
35654;PMS1003;21773;50.010;19.972;2024-03-02T07:44:08;54.00;41.00;30.40
35654;PMS1003;21773;50.010;19.972;2024-03-02T07:47:12;49.40;40.00;30.00
35654;PMS1003;21773;50.010;19.972;2024-03-02T07:50:16;49.00;39.00;28.00
35654;PMS1003;21773;50.010;19.972;2024-03-02T07:53:19;47.00;38.20;29.00
35654;PMS1003;21773;50.010;19.972;2024-03-02T07:56:22;47.00;39.60;29.60
35654;PMS1003;21773;50.010;19.972;2024-03-02T07:59:26;48.00;38.25;29.25
35654;PMS1003;21773;50.010;19.972;2024-03-02T08:02:29;46.75;37.50;28.50
35654;PMS1003;21773;50.010;19.972;2024-03-02T08:05:33;48.50;38.25;28.75
35654;PMS1003;21773;50.010;19.972;2024-03-02T08:08:36;46.80;37.80;28.00
35654;PMS1003;21773;50.010;19.972;2024-03-02T08:11:39;47.25;38.00;28.75
35654;PMS1003;21773;50.010;19.972;2024-03-02T08:14:43;47.40;38.40;27.80
35654;PMS1003;21773;50.010;19.972;2024-03-02T08:17:47;50.50;39.00;28.25
35654;PMS1003;21773;50.010;19.972;2024-03-02T08:20:51;50.00;39.00;28.40
35654;PMS1003;21773;50.010;19.972;2024-03-02T08:23:54;49.00;41.00;30.00
35654;PMS1003;21773;50.010;19.972;2024-03-02T08:26:58;52.60;41.60;31.00
35654;PMS1003;21773;50.010;19.972;2024-03-02T08:30:03;50.75;38.00;29.00
35654;PMS1003;21773;50.010;19.972;2024-03-02T08:33:09;48.60;38.20;28.80
35654;PMS1003;21773;50.010;19.972;2024-03-02T08:36:12;47.40;39.00;28.80
35654;PMS1003;21773;50.010;19.972;2024-03-02T08:39:15;47.00;38.00;28.40
35654;PMS1003;21773;50.010;19.972;2024-03-02T08:42:18;48.40;39.60;29.00
35654;PMS1003;21773;50.010;19.972;2024-03-02T08:45:23;50.25;39.75;29.00
35654;PMS1003;21773;50.010;19.972;2024-03-02T08:48:26;49.00;39.00;29.00
35654;PMS1003;21773;50.010;19.972;2024-03-02T08:51:30;48.00;39.00;29.00
35654;PMS1003;21773;50.010;19.972;2024-03-02T08:54:33;47.00;39.00;29.00
35654;PMS1003;21773;50.010;19.972;2024-03-02T08:57:38;46.00;38.00;28.00
35654;PMS1003;21773;50.010;19.972;2024-03-02T09:00:42;48.00;39.00;29.00
35654;PMS1003;21773;50.010;19.972;2024-03-02T09:03:46;50.60;39.80;29.60
35654;PMS1003;21773;50.010;19.972;2024-03-02T09:06:50;48.60;39.00;28.00
35654;PMS1003;21773;50.010;19.972;2024-03-02T09:09:54;47.00;38.00;28.00
35654;PMS1003;21773;50.010;19.972;2024-03-02T09:12:57;46.80;36.20;27.80
35654;PMS1003;21773;50.010;19.972;2024-03-02T09:16:02;45.25;37.00;28.00
35654;PMS1003;21773;50.010;19.972;2024-03-02T09:19:06;47.60;38.40;29.00
35654;PMS1003;21773;50.010;19.972;2024-03-02T09:22:11;47.00;38.00;28.00
35654;PMS1003;21773;50.010;19.972;2024-03-02T09:25:14;46.50;37.50;28.00
35654;PMS1003;21773;50.010;19.972;2024-03-02T09:28:18;45.40;37.40;28.00
35654;PMS1003;21773;50.010;19.972;2024-03-02T09:31:23;52.20;41.00;30.00
35654;PMS1003;21773;50.010;19.972;2024-03-02T09:34:27;48.25;39.50;29.25
35654;PMS1003;21773;50.010;19.972;2024-03-02T09:37:30;49.25;40.00;29.00
35654;PMS1003;21773;50.010;19.972;2024-03-02T09:40:33;50.20;40.00;30.00
35654;PMS1003;21773;50.010;19.972;2024-03-02T09:43:36;48.80;39.00;29.00
35654;PMS1003;21773;50.010;19.972;2024-03-02T09:46:41;52.50;41.50;30.50
35654;PMS1003;21773;50.010;19.972;2024-03-02T09:49:45;47.50;39.00;29.00
35654;PMS1003;21773;50.010;19.972;2024-03-02T09:52:49;45.75;38.00;28.00
35654;PMS1003;21773;50.010;19.972;2024-03-02T09:55:52;47.00;39.00;29.00
35654;PMS1003;21773;50.010;19.972;2024-03-02T09:58:55;49.00;40.00;29.20
35654;PMS1003;21773;50.010;19.972;2024-03-02T10:02:00;49.00;41.00;31.00
35654;PMS1003;21773;50.010;19.972;2024-03-02T10:05:04;52.00;41.00;30.00
35654;PMS1003;21773;50.010;19.972;2024-03-02T10:08:08;48.40;40.00;30.40
35654;PMS1003;21773;50.010;19.972;2024-03-02T10:11:11;49.00;40.00;30.00
35654;PMS1003;21773;50.010;19.972;2024-03-02T10:14:29;53.25;41.00;30.25
35654;PMS1003;21773;50.010;19.972;2024-03-02T10:17:34;48.25;36.75;28.00
35654;PMS1003;21773;50.010;19.972;2024-03-02T10:20:37;48.00;38.00;28.00
35654;PMS1003;21773;50.010;19.972;2024-03-02T10:23:40;47.80;38.60;29.00
35654;PMS1003;21773;50.010;19.972;2024-03-02T10:26:43;47.00;38.00;28.00
35654;PMS1003;21773;50.010;19.972;2024-03-02T10:29:47;44.40;35.00;26.00
35654;PMS1003;21773;50.010;19.972;2024-03-02T10:32:51;48.20;38.00;28.00
35654;PMS1003;21773;50.010;19.972;2024-03-02T10:35:55;45.00;37.00;28.00
35654;PMS1003;21773;50.010;19.972;2024-03-02T10:39:00;45.80;37.80;28.00
35654;PMS1003;21773;50.010;19.972;2024-03-02T10:42:05;45.00;37.20;28.60
35654;PMS1003;21773;50.010;19.972;2024-03-02T10:45:09;42.40;35.40;27.00
35654;PMS1003;21773;50.010;19.972;2024-03-02T10:48:14;46.80;37.00;28.00
35654;PMS1003;21773;50.010;19.972;2024-03-02T10:51:17;46.60;36.00;27.60
35654;PMS1003;21773;50.010;19.972;2024-03-02T10:54:21;46.60;38.60;29.00
35654;PMS1003;21773;50.010;19.972;2024-03-02T10:57:28;47.00;38.00;28.00
35654;PMS1003;21773;50.010;19.972;2024-03-02T11:00:41;50.00;39.80;28.80
35654;PMS1003;21773;50.010;19.972;2024-03-02T11:03:49;48.00;38.50;28.50
35654;PMS1003;21773;50.010;19.972;2024-03-02T11:06:54;47.00;38.00;28.00
35654;PMS1003;21773;50.010;19.972;2024-03-02T11:10:02;49.00;40.00;30.00
35654;PMS1003;21773;50.010;19.972;2024-03-02T11:13:11;49.50;39.00;30.00
35654;PMS1003;21773;50.010;19.972;2024-03-02T11:16:16;47.00;37.40;28.00
35654;PMS1003;21773;50.010;19.972;2024-03-02T11:19:29;46.40;38.00;28.00
35654;PMS1003;21773;50.010;19.972;2024-03-02T11:22:34;48.40;39.80;29.00
35654;PMS1003;21773;50.010;19.972;2024-03-02T11:25:38;48.00;39.00;28.00
35654;PMS1003;21773;50.010;19.972;2024-03-02T11:28:41;49.00;39.00;29.00
35654;PMS1003;21773;50.010;19.972;2024-03-02T11:31:57;48.00;38.00;28.00
35654;PMS1003;21773;50.010;19.972;2024-03-02T11:35:02;47.40;38.20;28.40
35654;PMS1003;21773;50.010;19.972;2024-03-02T11:38:06;52.60;40.40;30.00
35654;PMS1003;21773;50.010;19.972;2024-03-02T11:41:09;46.00;38.00;28.00
35654;PMS1003;21773;50.010;19.972;2024-03-02T11:44:13;47.60;38.00;28.00
35654;PMS1003;21773;50.010;19.972;2024-03-02T11:47:17;48.25;39.00;29.00
35654;PMS1003;21773;50.010;19.972;2024-03-02T11:50:29;44.20;37.60;28.00
35654;PMS1003;21773;50.010;19.972;2024-03-02T11:53:35;47.00;36.00;28.00
35654;PMS1003;21773;50.010;19.972;2024-03-02T11:56:44;44.60;36.40;28.00
35654;PMS1003;21773;50.010;19.972;2024-03-02T11:59:48;42.60;35.20;27.60
35654;PMS1003;21773;50.010;19.972;2024-03-02T12:02:59;47.60;36.00;27.00
35654;PMS1003;21773;50.010;19.972;2024-03-02T12:06:04;44.60;36.00;27.60
35654;PMS1003;21773;50.010;19.972;2024-03-02T12:09:09;44.00;35.00;27.00
35654;PMS1003;21773;50.010;19.972;2024-03-02T12:12:14;44.00;36.00;27.00
35654;PMS1003;21773;50.010;19.972;2024-03-02T12:15:22;45.00;37.00;28.00
35654;PMS1003;21773;50.010;19.972;2024-03-02T12:18:26;49.40;38.00;28.00
35654;PMS1003;21773;50.010;19.972;2024-03-02T12:21:30;48.00;38.00;29.00
35654;PMS1003;21773;50.010;19.972;2024-03-02T12:24:33;46.00;36.00;28.00
35654;PMS1003;21773;50.010;19.972;2024-03-02T12:27:37;49.00;39.00;29.00
35654;PMS1003;21773;50.010;19.972;2024-03-02T12:30:41;49.40;38.60;29.00
35654;PMS1003;21773;50.010;19.972;2024-03-02T12:33:45;45.00;38.00;28.00
35654;PMS1003;21773;50.010;19.972;2024-03-02T12:36:50;49.80;40.00;29.00
35654;PMS1003;21773;50.010;19.972;2024-03-02T12:39:55;46.20;37.80;28.00
35654;PMS1003;21773;50.010;19.972;2024-03-02T12:42:58;48.50;39.00;29.00
35654;PMS1003;21773;50.010;19.972;2024-03-02T12:46:01;49.60;38.00;28.00
35654;PMS1003;21773;50.010;19.972;2024-03-02T12:49:07;44.75;36.25;28.00
35654;PMS1003;21773;50.010;19.972;2024-03-02T12:52:14;47.60;38.60;28.60
35654;PMS1003;21773;50.010;19.972;2024-03-02T12:55:19;50.00;40.00;29.40
35654;PMS1003;21773;50.010;19.972;2024-03-02T12:58:23;51.00;39.50;28.50
35654;PMS1003;21773;50.010;19.972;2024-03-02T13:01:28;46.20;36.00;28.00
35654;PMS1003;21773;50.010;19.972;2024-03-02T13:04:31;47.00;38.00;28.00
35654;PMS1003;21773;50.010;19.972;2024-03-02T13:07:35;44.60;36.00;27.00
35654;PMS1003;21773;50.010;19.972;2024-03-02T13:10:39;46.60;36.60;27.00
35654;PMS1003;21773;50.010;19.972;2024-03-02T13:13:42;41.00;34.00;25.50
35654;PMS1003;21773;50.010;19.972;2024-03-02T13:16:46;43.00;35.00;27.00
35654;PMS1003;21773;50.010;19.972;2024-03-02T13:19:52;44.80;37.00;27.80
35654;PMS1003;21773;50.010;19.972;2024-03-02T13:22:57;41.00;34.00;26.00
35654;PMS1003;21773;50.010;19.972;2024-03-02T13:26:00;45.20;36.00;28.00
35654;PMS1003;21773;50.010;19.972;2024-03-02T13:29:04;42.40;35.00;25.60
35654;PMS1003;21773;50.010;19.972;2024-03-02T13:32:07;44.75;36.00;27.00
35654;PMS1003;21773;50.010;19.972;2024-03-02T13:35:11;44.50;36.00;27.00
35654;PMS1003;21773;50.010;19.972;2024-03-02T13:38:16;45.00;37.40;27.00
35654;PMS1003;21773;50.010;19.972;2024-03-02T13:41:19;46.80;38.00;28.40
35654;PMS1003;21773;50.010;19.972;2024-03-02T13:44:23;41.00;35.00;27.00
35654;PMS1003;21773;50.010;19.972;2024-03-02T13:47:26;46.20;37.20;27.80
35654;PMS1003;21773;50.010;19.972;2024-03-02T13:57:52;42.00;35.40;27.00
35654;PMS1003;21773;50.010;19.972;2024-03-02T14:00:56;45.20;36.00;27.00
35654;PMS1003;21773;50.010;19.972;2024-03-02T14:04:00;46.40;35.40;26.00
35654;PMS1003;21773;50.010;19.972;2024-03-02T14:07:04;41.00;35.00;26.60
35654;PMS1003;21773;50.010;19.972;2024-03-02T14:10:09;42.00;35.00;27.00
35654;PMS1003;21773;50.010;19.972;2024-03-02T14:13:14;43.25;35.00;27.00
35654;PMS1003;21773;50.010;19.972;2024-03-02T14:16:18;44.00;36.00;27.00
35654;PMS1003;21773;50.010;19.972;2024-03-02T14:19:22;43.00;33.80;26.00
35654;PMS1003;21773;50.010;19.972;2024-03-02T14:22:30;43.00;35.00;27.00
35654;PMS1003;21773;50.010;19.972;2024-03-02T14:25:35;45.00;35.25;26.50
35654;PMS1003;21773;50.010;19.972;2024-03-02T14:28:40;43.00;34.40;26.00
35654;PMS1003;21773;50.010;19.972;2024-03-02T14:31:52;39.60;33.00;25.40
35654;PMS1003;21773;50.010;19.972;2024-03-02T14:34:55;42.75;35.00;26.50
35654;PMS1003;21773;50.010;19.972;2024-03-02T14:37:58;40.20;33.00;25.80
35654;PMS1003;21773;50.010;19.972;2024-03-02T14:41:02;39.60;34.00;25.60
35654;PMS1003;21773;50.010;19.972;2024-03-02T14:44:07;44.40;34.60;25.60
35654;PMS1003;21773;50.010;19.972;2024-03-02T14:47:11;44.00;33.50;26.00
35654;PMS1003;21773;50.010;19.972;2024-03-02T15:01:37;38.60;33.00;26.00
35654;PMS1003;21773;50.010;19.972;2024-03-02T15:04:40;36.00;32.00;25.00
35654;PMS1003;21773;50.010;19.972;2024-03-02T15:07:45;41.00;35.00;27.00
35654;PMS1003;21773;50.010;19.972;2024-03-02T15:10:48;35.60;32.00;24.60
35654;PMS1003;21773;50.010;19.972;2024-03-02T15:13:51;44.00;34.00;26.00
35654;PMS1003;21773;50.010;19.972;2024-03-02T15:16:56;44.60;35.60;27.00
35654;PMS1003;21773;50.010;19.972;2024-03-02T15:19:59;38.40;34.00;26.00
35654;PMS1003;21773;50.010;19.972;2024-03-02T15:23:02;45.50;36.00;27.00
35654;PMS1003;21773;50.010;19.972;2024-03-02T15:26:06;42.60;35.00;26.20
35654;PMS1003;21773;50.010;19.972;2024-03-02T15:29:10;40.60;34.60;26.00
35654;PMS1003;21773;50.010;19.972;2024-03-02T15:32:15;46.75;38.00;28.00
35654;PMS1003;21773;50.010;19.972;2024-03-02T15:35:18;41.60;36.00;28.00
35654;PMS1003;21773;50.010;19.972;2024-03-02T15:38:21;44.40;35.60;26.60
35654;PMS1003;21773;50.010;19.972;2024-03-02T15:41:35;45.00;36.00;27.00
35654;PMS1003;21773;50.010;19.972;2024-03-02T15:44:38;45.40;37.80;28.00
35654;PMS1003;21773;50.010;19.972;2024-03-02T15:47:45;43.00;34.00;25.60
35654;PMS1003;21773;50.010;19.972;2024-03-02T15:50:48;42.00;35.00;26.00
35654;PMS1003;21773;50.010;19.972;2024-03-02T15:53:52;44.20;36.00;28.00
35654;PMS1003;21773;50.010;19.972;2024-03-02T15:56:55;41.60;35.00;27.00
35654;PMS1003;21773;50.010;19.972;2024-03-02T15:59:59;42.75;35.75;26.75
35654;PMS1003;21773;50.010;19.972;2024-03-02T16:03:13;46.25;36.00;27.50
35654;PMS1003;21773;50.010;19.972;2024-03-02T16:06:16;45.00;36.80;27.00
35654;PMS1003;21773;50.010;19.972;2024-03-02T16:09:19;44.60;36.00;28.00
35654;PMS1003;21773;50.010;19.972;2024-03-02T16:12:22;45.00;36.00;27.00
35654;PMS1003;21773;50.010;19.972;2024-03-02T16:15:26;45.00;36.00;27.00
35654;PMS1003;21773;50.010;19.972;2024-03-02T16:18:31;45.20;37.20;28.00
35654;PMS1003;21773;50.010;19.972;2024-03-02T16:21:35;43.00;36.00;28.00
35654;PMS1003;21773;50.010;19.972;2024-03-02T16:24:39;41.60;35.20;26.20
35654;PMS1003;21773;50.010;19.972;2024-03-02T16:27:42;46.25;36.00;27.25
35654;PMS1003;21773;50.010;19.972;2024-03-02T16:30:45;45.25;36.00;28.00
35654;PMS1003;21773;50.010;19.972;2024-03-02T16:33:49;42.60;35.00;27.00
35654;PMS1003;21773;50.010;19.972;2024-03-02T16:36:53;45.80;37.00;28.00
35654;PMS1003;21773;50.010;19.972;2024-03-02T16:39:56;44.80;35.80;27.00
35654;PMS1003;21773;50.010;19.972;2024-03-02T16:42:59;40.33;35.00;27.33
35654;PMS1003;21773;50.010;19.972;2024-03-02T16:46:02;49.00;38.00;28.00
35654;PMS1003;21773;50.010;19.972;2024-03-02T16:49:08;41.00;35.00;27.00
35654;PMS1003;21773;50.010;19.972;2024-03-02T16:52:12;46.60;38.00;28.00
35654;PMS1003;21773;50.010;19.972;2024-03-02T16:55:16;45.00;36.00;27.40
35654;PMS1003;21773;50.010;19.972;2024-03-02T16:58:20;45.00;36.00;27.75
35654;PMS1003;21773;50.010;19.972;2024-03-02T17:01:23;44.80;36.00;27.00
35654;PMS1003;21773;50.010;19.972;2024-03-02T17:04:30;46.60;37.20;27.20
35654;PMS1003;21773;50.010;19.972;2024-03-02T17:07:34;46.00;38.00;28.00
35654;PMS1003;21773;50.010;19.972;2024-03-02T17:10:38;45.00;34.40;27.00
35654;PMS1003;21773;50.010;19.972;2024-03-02T17:13:41;46.00;36.25;27.25
35654;PMS1003;21773;50.010;19.972;2024-03-02T17:16:44;45.20;36.00;27.80
35654;PMS1003;21773;50.010;19.972;2024-03-02T17:19:49;45.00;36.20;27.80
35654;PMS1003;21773;50.010;19.972;2024-03-02T17:22:52;47.60;40.00;30.00